createdAt,value
2022-10-20T00:00:06.733Z,4.7
2022-10-20T00:02:11.974Z,5.8
2022-10-20T00:04:13.984Z,6.1
2022-10-20T00:06:15.940Z,6.1
2022-10-20T00:09:20.563Z,5.5
2022-10-20T00:11:22.553Z,4.9
2022-10-20T00:13:24.602Z,5.5
2022-10-20T00:15:29.768Z,6.1
2022-10-20T00:21:35.744Z,5.3
2022-10-20T00:23:37.750Z,5.8
2022-10-20T00:25:39.746Z,6.3
2022-10-20T00:27:41.758Z,6
2022-10-20T00:29:46.962Z,5.8
2022-10-20T00:33:50.962Z,4.7
2022-10-20T00:37:54.966Z,5.9
2022-10-20T00:39:56.965Z,6.5
2022-10-20T00:46:06.182Z,5.6
2022-10-20T00:48:08.169Z,6.3
2022-10-20T00:50:10.221Z,5.2
2022-10-20T00:58:21.349Z,7.4
2022-10-20T01:00:23.346Z,6
2022-10-20T01:02:25.343Z,6.8
2022-10-20T01:03:27.943Z,6.1
2022-10-20T01:05:31.511Z,6
2022-10-20T01:07:33.736Z,6.9
2022-10-20T01:09:35.444Z,5.5
2022-10-20T01:11:40.682Z,7.3
2022-10-20T01:13:42.671Z,6.1
2022-10-20T01:15:44.668Z,6.3
2022-10-20T01:17:46.664Z,6.3
2022-10-20T01:19:48.667Z,5.3
2022-10-20T01:21:50.665Z,5.6
2022-10-20T01:23:52.659Z,6.4
2022-10-20T01:25:57.884Z,5.8
2022-10-20T01:27:59.883Z,5
2022-10-20T01:30:01.926Z,5.6
2022-10-20T01:34:05.900Z,5.1
2022-10-20T01:36:07.871Z,5.3
2022-10-20T01:38:09.878Z,6.6
2022-10-20T01:42:17.098Z,6.1
2022-10-20T01:44:19.124Z,5.3
2022-10-20T01:46:21.128Z,6
2022-10-20T01:48:23.081Z,5.4
2022-10-20T01:50:25.092Z,6.1
2022-10-20T01:52:27.052Z,6.6
2022-10-20T01:54:32.264Z,5.5
2022-10-20T01:56:34.294Z,5.6
2022-10-20T01:58:36.293Z,5.8
2022-10-20T02:01:05.137Z,6.3
2022-10-20T02:03:07.124Z,6.5
2022-10-20T02:05:09.137Z,6.5
2022-10-20T02:09:16.357Z,6.1
2022-10-20T02:13:20.346Z,6.3
2022-10-20T02:15:22.342Z,5.7
2022-10-20T02:17:24.332Z,5.4
2022-10-20T02:19:26.341Z,6.4
2022-10-20T02:23:36.468Z,5.9
2022-10-20T02:25:35.541Z,5.3
2022-10-20T02:27:37.520Z,5.5
2022-10-20T02:29:39.532Z,6.3
2022-10-20T02:31:41.504Z,5
2022-10-20T02:33:43.524Z,5.6
2022-10-20T02:35:48.748Z,5.9
2022-10-20T02:37:50.743Z,5.6
2022-10-20T02:39:52.754Z,5.6
2022-10-20T02:41:54.767Z,6.3
2022-10-20T02:43:56.737Z,5.6
2022-10-20T02:45:58.749Z,6.6
2022-10-20T02:48:00.771Z,7.1
2022-10-20T02:50:05.982Z,5.9
2022-10-20T02:52:07.985Z,5.8
2022-10-20T02:54:09.978Z,5.3
2022-10-20T02:57:14.562Z,5.5
2022-10-20T02:59:16.545Z,5.7
2022-10-20T03:01:18.623Z,6.7
2022-10-20T03:03:23.764Z,6.4
2022-10-20T03:05:25.728Z,6.7
2022-10-20T03:07:27.749Z,5.5
2022-10-20T03:09:29.743Z,5.8
2022-10-20T03:11:31.708Z,5.6
2022-10-20T03:13:33.733Z,7.2
2022-10-20T03:15:35.722Z,6.5
2022-10-20T03:17:40.961Z,5.1
2022-10-20T03:19:42.946Z,5.7
2022-10-20T03:21:44.926Z,5.5
2022-10-20T03:23:46.916Z,5.5
2022-10-20T03:25:48.928Z,4.8
2022-10-20T03:27:50.920Z,5.5
2022-10-20T03:29:52.933Z,5.1
2022-10-20T03:31:58.119Z,6.7
2022-10-20T03:34:00.142Z,5.3
2022-10-20T03:40:06.112Z,4.9
2022-10-20T03:42:08.079Z,6.3
2022-10-20T03:44:10.086Z,5.3
2022-10-20T03:46:15.293Z,6.8
2022-10-20T03:50:19.284Z,6.1
2022-10-20T03:51:21.908Z,5.7
2022-10-20T03:53:23.911Z,5.3
2022-10-20T03:55:25.881Z,5.2
2022-10-20T03:57:27.895Z,5.8
2022-10-20T03:59:33.108Z,5.4
2022-10-20T04:01:35.203Z,6
2022-10-20T04:03:37.111Z,5.7
2022-10-20T04:05:39.120Z,6.6
2022-10-20T04:09:43.065Z,5.5
2022-10-20T04:11:45.063Z,4.8
2022-10-20T04:13:50.283Z,5.7
2022-10-20T04:17:54.249Z,5.7
2022-10-20T04:19:56.223Z,6.4
2022-10-20T04:21:58.260Z,5.5
2022-10-20T04:24:00.234Z,5.6
2022-10-20T04:26:02.216Z,6.9
2022-10-20T04:28:07.427Z,6.2
2022-10-20T04:30:09.407Z,6.1
2022-10-20T04:32:11.425Z,6
2022-10-20T04:36:15.403Z,6.2
2022-10-20T04:38:17.390Z,5.5
2022-10-20T04:40:19.371Z,4.4
2022-10-20T04:42:24.577Z,5.9
2022-10-20T04:44:26.557Z,6.3
2022-10-20T04:46:28.582Z,6.1
2022-10-20T04:47:31.219Z,6.7
2022-10-20T04:49:33.208Z,5.5
2022-10-20T04:51:35.194Z,4.9
2022-10-20T04:53:37.163Z,7.3
2022-10-20T04:55:42.396Z,6.8
2022-10-20T04:59:46.375Z,6.8
2022-10-20T05:01:48.487Z,4.7
2022-10-20T05:03:50.355Z,6.7
2022-10-20T05:05:52.368Z,5.6
2022-10-20T05:07:54.340Z,5.9
2022-10-20T05:09:59.552Z,5.3
2022-10-20T05:12:01.677Z,5.7
2022-10-20T05:16:05.564Z,6.3
2022-10-20T05:18:07.501Z,7.1
2022-10-20T05:20:09.502Z,6.5
2022-10-20T05:22:11.471Z,6.5
2022-10-20T05:24:19.857Z,6
2022-10-20T05:26:18.690Z,6.9
2022-10-20T05:28:20.687Z,6.9
2022-10-20T05:30:22.668Z,6.8
2022-10-20T05:32:24.662Z,5.6
2022-10-20T05:34:26.638Z,7.3
2022-10-20T05:36:28.681Z,7.6
2022-10-20T05:40:35.878Z,7.3
2022-10-20T05:42:38.253Z,6.7
2022-10-20T05:45:06.766Z,6.6
2022-10-20T05:47:08.731Z,6.2
2022-10-20T05:49:10.721Z,6.5
2022-10-20T05:51:15.944Z,7.2
2022-10-20T05:53:17.945Z,7.6
2022-10-20T05:55:19.922Z,6.5
2022-10-20T05:57:21.898Z,6.5
2022-10-20T06:01:26.017Z,6.8
2022-10-20T06:03:28.396Z,7.4
2022-10-20T06:05:33.123Z,7.2
2022-10-20T06:07:35.120Z,7.2
2022-10-20T06:09:37.108Z,8
2022-10-20T06:11:39.702Z,7.1
2022-10-20T06:13:41.098Z,7.2
2022-10-20T06:15:43.091Z,8.1
2022-10-20T06:17:45.093Z,6.6
2022-10-20T06:19:50.337Z,8.5
2022-10-20T06:21:52.306Z,8.2
2022-10-20T06:23:54.298Z,7.8
2022-10-20T06:25:56.320Z,8.8
2022-10-20T06:27:58.316Z,6.7
2022-10-20T06:34:07.504Z,7
2022-10-20T06:36:09.488Z,7.9
2022-10-20T06:38:11.480Z,6.5
2022-10-20T06:41:16.082Z,8
2022-10-20T06:43:18.089Z,8.1
2022-10-20T06:45:20.062Z,8.5
2022-10-20T06:47:25.294Z,8.7
2022-10-20T06:49:27.309Z,9
2022-10-20T06:51:29.364Z,9.6
2022-10-20T06:53:31.295Z,8.6
2022-10-20T06:55:33.289Z,7.8
2022-10-20T06:57:36.840Z,7.2
2022-10-20T06:59:38.792Z,8
2022-10-20T07:03:46.020Z,8.3
2022-10-20T07:05:47.982Z,7.1
2022-10-20T07:07:49.997Z,8.9
2022-10-20T07:09:51.966Z,8.4
2022-10-20T07:11:53.938Z,8.4
2022-10-20T07:13:55.973Z,9.6
2022-10-20T07:16:01.189Z,9.6
2022-10-20T07:18:03.192Z,9
2022-10-20T07:20:05.175Z,7.8
2022-10-20T07:22:07.158Z,8.4
2022-10-20T07:24:09.129Z,10.6
2022-10-20T07:26:11.125Z,7.5
2022-10-20T07:28:13.139Z,9.2
2022-10-20T07:30:18.361Z,9.1
2022-10-20T07:32:20.331Z,9.2
2022-10-20T07:35:24.953Z,9.9
2022-10-20T07:37:26.962Z,7.1
2022-10-20T07:39:28.907Z,8.9
2022-10-20T07:41:31.929Z,8.9
2022-10-20T07:43:36.155Z,9.1
2022-10-20T07:45:38.138Z,8.2
2022-10-20T07:47:43.091Z,9.3
2022-10-20T07:49:44.666Z,8.2
2022-10-20T07:53:46.076Z,8.9
2022-10-20T07:55:48.109Z,8.5
2022-10-20T07:59:55.294Z,8.8
2022-10-20T08:01:59.655Z,8.8
2022-10-20T08:03:59.295Z,8.7
2022-10-20T08:16:14.778Z,7.8
2022-10-20T08:20:20.446Z,8.7
2022-10-20T08:24:22.475Z,7.9
2022-10-20T08:26:27.727Z,10.5
2022-10-20T08:28:29.732Z,9.9
2022-10-20T08:30:31.728Z,9.4
2022-10-20T08:31:34.353Z,9.3
2022-10-20T08:33:36.344Z,8.8
2022-10-20T08:35:38.258Z,7.6
2022-10-20T08:37:40.224Z,8.8
2022-10-20T08:39:45.462Z,9.6
2022-10-20T08:42:07.622Z,8.9
2022-10-20T08:43:49.488Z,10.2
2022-10-20T08:45:51.491Z,8.6
2022-10-20T08:47:53.526Z,8.7
2022-10-20T08:49:55.501Z,9.5
2022-10-20T08:51:57.516Z,9.5
2022-10-20T08:54:02.779Z,8.2
2022-10-20T08:56:04.793Z,8.8
2022-10-20T08:58:06.807Z,8.1
2022-10-20T09:00:09.145Z,9.4
2022-10-20T09:02:10.888Z,9.1
2022-10-20T09:06:14.745Z,9.2
2022-10-20T09:10:21.796Z,9.6
2022-10-20T09:12:26.416Z,9.2
2022-10-20T09:14:25.717Z,8.9
2022-10-20T09:16:40.772Z,9.4
2022-10-20T09:18:29.775Z,9.5
2022-10-20T09:20:31.756Z,8.5
2022-10-20T09:22:36.920Z,9
2022-10-20T09:24:38.913Z,9.4
2022-10-20T09:26:58.028Z,8.1
2022-10-20T09:29:13.037Z,11.2
2022-10-20T09:31:11.698Z,8.1
2022-10-20T09:33:13.621Z,8.7
2022-10-20T09:37:20.572Z,7.3
2022-10-20T09:39:22.585Z,8.7
2022-10-20T09:41:24.480Z,7.8
2022-10-20T09:43:26.387Z,8.4
2022-10-20T09:45:28.301Z,8.3
2022-10-20T09:49:35.260Z,9.5
2022-10-20T09:51:37.164Z,8.5
2022-10-20T09:53:39.050Z,8.8
2022-10-20T09:55:40.951Z,7
2022-10-20T09:57:42.849Z,8.8
2022-10-20T09:59:44.791Z,7.8
2022-10-20T10:01:46.653Z,9
2022-10-20T10:03:51.676Z,8.8
2022-10-20T10:05:53.578Z,10.7
2022-10-20T10:07:55.485Z,9.5
2022-10-20T10:14:01.207Z,8.7
2022-10-20T10:16:03.115Z,7.4
2022-10-20T10:23:14.519Z,8.8
2022-10-20T10:25:16.407Z,9
2022-10-20T10:27:18.314Z,7.8
2022-10-20T10:33:27.184Z,9
2022-10-20T10:37:33.973Z,9.5
2022-10-20T10:39:32.910Z,10.9
2022-10-20T10:41:34.835Z,10
2022-10-20T10:43:36.783Z,9.8
2022-10-20T10:45:41.772Z,13.1
2022-10-20T10:47:43.872Z,10.2
2022-10-20T10:49:45.588Z,10
2022-10-20T10:51:47.508Z,9.8
2022-10-20T10:53:49.401Z,10.1
2022-10-20T10:55:51.279Z,9.8
2022-10-20T10:57:53.207Z,11.3
2022-10-20T11:02:00.170Z,10.5
2022-10-20T11:04:02.098Z,10.2
2022-10-20T11:06:03.998Z,9.7
2022-10-20T11:08:05.929Z,10.2
2022-10-20T11:10:07.820Z,10.4
2022-10-20T11:12:09.747Z,10.8
2022-10-20T11:16:16.682Z,9.4
2022-10-20T11:18:18.577Z,9.6
2022-10-20T11:19:21.149Z,10.8
2022-10-20T11:21:23.013Z,10.5
2022-10-20T11:23:24.952Z,9.4
2022-10-20T11:25:26.810Z,10.3
2022-10-20T11:27:31.842Z,10.7
2022-10-20T11:31:35.637Z,11.4
2022-10-20T11:33:40.700Z,9.2
2022-10-20T11:35:39.441Z,11.4
2022-10-20T11:37:41.581Z,9.8
2022-10-20T11:39:43.288Z,9.7
2022-10-20T11:43:50.211Z,10.4
2022-10-20T11:45:52.118Z,11.1
2022-10-20T11:47:54.036Z,12.8
2022-10-20T11:49:55.942Z,11.8
2022-10-20T11:51:57.858Z,10.8
2022-10-20T11:53:59.745Z,10.2
2022-10-20T11:56:04.790Z,9.8
2022-10-20T11:58:06.689Z,11.2
2022-10-20T12:00:08.654Z,10.9
2022-10-20T12:04:12.392Z,12.3
2022-10-20T12:06:14.299Z,11.8
2022-10-20T12:08:29.518Z,10.5
2022-10-20T12:10:21.242Z,13.5
2022-10-20T12:12:23.153Z,11.8
2022-10-20T12:14:25.059Z,11.9
2022-10-20T12:15:27.576Z,11.6
2022-10-20T12:17:29.503Z,14.4
2022-10-20T12:19:31.451Z,10.6
2022-10-20T12:21:34.515Z,11.2
2022-10-20T12:23:38.371Z,14.5
2022-10-20T12:25:40.276Z,11.1
2022-10-20T12:27:42.180Z,13.5
2022-10-20T12:29:44.079Z,12.9
2022-10-20T12:31:45.997Z,11.7
2022-10-20T12:33:47.913Z,12.9
2022-10-20T12:35:49.815Z,11.6
2022-10-20T12:37:54.848Z,14.3
2022-10-20T12:44:00.582Z,14.4
2022-10-20T12:46:02.481Z,14.7
2022-10-20T12:48:04.380Z,15.4
2022-10-20T12:50:07.847Z,13.3
2022-10-20T12:52:12.859Z,15.6
2022-10-20T12:58:18.550Z,14.1
2022-10-20T13:00:20.473Z,15
2022-10-20T13:02:22.397Z,14.7
2022-10-20T13:08:31.302Z,14.8
2022-10-20T13:13:01.814Z,18
2022-10-20T13:15:03.778Z,16.2
2022-10-20T13:17:05.613Z,17.8
2022-10-20T13:19:10.653Z,18.6
2022-10-20T13:21:12.564Z,16
2022-10-20T13:23:14.488Z,14.5
2022-10-20T13:25:16.365Z,17.4
2022-10-20T13:29:20.216Z,18.9
2022-10-20T13:37:30.998Z,17.6
2022-10-20T13:41:34.775Z,17.2
2022-10-20T13:43:36.682Z,18.9
2022-10-20T13:45:38.593Z,15
2022-10-20T13:47:43.633Z,19.4
2022-10-20T13:49:49.303Z,16.8
2022-10-20T13:51:47.460Z,17.2
2022-10-20T13:53:49.351Z,18
2022-10-20T13:55:51.296Z,16.3
2022-10-20T13:57:55.572Z,17.9
2022-10-20T13:59:55.102Z,17.5
2022-10-20T14:04:02.036Z,16.4
2022-10-20T14:06:03.936Z,17.7
2022-10-20T14:07:06.466Z,19.6
2022-10-20T14:09:08.367Z,19.5
2022-10-20T14:11:10.249Z,17.5
2022-10-20T14:13:12.160Z,16.8
2022-10-20T14:15:17.220Z,20
2022-10-20T14:17:19.133Z,17.4
2022-10-20T14:19:21.038Z,17.7
2022-10-20T14:21:22.955Z,19.8
2022-10-20T14:23:24.870Z,18.9
2022-10-20T14:25:26.795Z,17
2022-10-20T14:27:28.684Z,18.1
2022-10-20T14:29:33.733Z,20.6
2022-10-20T14:31:35.631Z,20.2
2022-10-20T14:33:37.522Z,18.7
2022-10-20T14:35:39.432Z,18.5
2022-10-20T14:37:41.347Z,18.4
2022-10-20T14:39:43.252Z,20.8
2022-10-20T14:41:45.130Z,19.9
2022-10-20T14:43:51.096Z,21.3
2022-10-20T14:45:53.014Z,21.8
2022-10-20T14:47:54.903Z,20.2
2022-10-20T14:49:56.804Z,20.7
2022-10-20T14:51:58.720Z,18.2
2022-10-20T14:54:00.607Z,18.7
2022-10-20T14:58:07.539Z,20.8
2022-10-20T15:02:11.332Z,19.9
2022-10-20T15:03:13.882Z,18.3
2022-10-20T15:05:15.755Z,19.2
2022-10-20T15:07:17.636Z,19.4
2022-10-20T15:09:19.572Z,17.6
2022-10-20T15:11:24.566Z,19.2
2022-10-20T15:15:28.354Z,18.7
2022-10-20T15:17:30.265Z,19.4
2022-10-20T15:19:32.149Z,17.8
2022-10-20T15:21:34.074Z,17.7
2022-10-20T15:23:35.972Z,15.9
2022-10-20T15:25:41.003Z,19.9
2022-10-20T15:29:44.801Z,17.4
2022-10-20T15:33:49.690Z,19.1
2022-10-20T15:35:51.676Z,19.2
2022-10-20T15:37:53.469Z,19.6
2022-10-20T15:39:58.521Z,20
2022-10-20T15:42:00.386Z,19.8
2022-10-20T15:44:02.277Z,18
2022-10-20T15:46:04.189Z,17.5
2022-10-20T15:48:06.075Z,17.8
2022-10-20T15:50:07.993Z,18.8
2022-10-20T15:52:09.898Z,17.2
2022-10-20T15:54:14.913Z,18.4
2022-10-20T15:56:16.821Z,18.4
2022-10-20T15:58:18.728Z,17.1
2022-10-20T15:59:21.241Z,18.9
2022-10-20T16:01:23.272Z,19.1
2022-10-20T16:03:25.022Z,18.4
2022-10-20T16:05:26.933Z,18.8
2022-10-20T16:07:31.987Z,18.7
2022-10-20T16:09:33.873Z,18
2022-10-20T16:11:35.771Z,18.3
2022-10-20T16:13:37.678Z,17.9
2022-10-20T16:15:39.607Z,20
2022-10-20T16:17:41.522Z,18.1
2022-10-20T16:19:43.387Z,18.3
2022-10-20T16:23:50.329Z,18.7
2022-10-20T16:25:52.408Z,18.7
2022-10-20T16:27:54.137Z,20
2022-10-20T16:29:56.032Z,21.3
2022-10-20T16:31:57.935Z,19.7
2022-10-20T16:36:05.022Z,19.6
2022-10-20T16:38:06.796Z,22.8
2022-10-20T16:40:08.686Z,22.6
2022-10-20T16:42:10.574Z,21.4
2022-10-20T16:44:12.488Z,20.6
2022-10-20T16:46:14.373Z,20.2
2022-10-20T16:48:16.283Z,23
2022-10-20T16:50:21.346Z,20.8
2022-10-20T16:52:23.234Z,22
2022-10-20T16:54:25.114Z,20.6
2022-10-20T16:56:53.690Z,22
2022-10-20T16:58:55.609Z,21.8
2022-10-20T17:00:57.628Z,20.6
2022-10-20T17:03:02.591Z,21.4
2022-10-20T17:05:08.202Z,17.7
2022-10-20T17:07:06.410Z,18.4
2022-10-20T17:09:08.354Z,16.5
2022-10-20T17:11:10.198Z,18.2
2022-10-20T17:13:12.096Z,18.8
2022-10-20T17:15:14.018Z,15.9
2022-10-20T17:17:19.058Z,19.4
2022-10-20T17:19:20.978Z,16
2022-10-20T17:21:22.880Z,17
2022-10-20T17:23:24.821Z,17.5
2022-10-20T17:25:26.705Z,17.9
2022-10-20T17:27:28.570Z,19.2
2022-10-20T17:29:30.510Z,15.7
2022-10-20T17:31:35.524Z,16.8
2022-10-20T17:33:37.449Z,16.3
2022-10-20T17:35:39.378Z,16.1
2022-10-20T17:37:41.253Z,16
2022-10-20T17:39:43.169Z,16.9
2022-10-20T17:41:45.070Z,17.2
2022-10-20T17:43:46.961Z,17.8
2022-10-20T17:45:51.984Z,17.6
2022-10-20T17:47:53.872Z,16.9
2022-10-20T17:49:55.813Z,16.9
2022-10-20T17:57:03.997Z,15.5
2022-10-20T17:59:09.125Z,17.3
2022-10-20T18:01:10.999Z,15.2
2022-10-20T18:05:14.765Z,15.5
2022-10-20T18:11:20.477Z,17.1
2022-10-20T18:13:25.510Z,17.8
2022-10-20T18:15:27.581Z,18.1
2022-10-20T18:17:29.326Z,16.8
2022-10-20T18:19:31.229Z,17.5
2022-10-20T18:21:33.144Z,20.2
2022-10-20T18:23:35.059Z,18.1
2022-10-20T18:25:36.952Z,16.6
2022-10-20T18:27:41.969Z,17.2
2022-10-20T18:29:43.902Z,18.1
2022-10-20T18:39:53.458Z,16.5
2022-10-20T18:44:01.902Z,17.9
2022-10-20T18:46:03.834Z,18
2022-10-20T18:49:08.240Z,17.9
2022-10-20T18:51:10.171Z,16.3
2022-10-20T18:53:12.044Z,17.6
2022-10-20T18:55:17.128Z,18.5
2022-10-20T18:57:19.026Z,17.6
2022-10-20T18:59:20.907Z,17.2
2022-10-20T19:01:22.812Z,18.7
2022-10-20T19:03:24.690Z,18.1
2022-10-20T19:05:26.600Z,18.8
2022-10-20T19:07:28.497Z,19
2022-10-20T19:09:33.550Z,19.8
2022-10-20T19:11:35.539Z,22.2
2022-10-20T19:13:37.344Z,21.9
2022-10-20T19:15:39.451Z,19.7
2022-10-20T19:17:41.140Z,17.3
2022-10-20T19:19:43.054Z,16.4
2022-10-20T19:21:44.936Z,16.2
2022-10-20T19:23:49.970Z,17.7
2022-10-20T19:25:51.907Z,18.3
2022-10-20T19:27:53.791Z,17.8
2022-10-20T19:29:55.677Z,16.2
2022-10-20T19:31:57.564Z,17.1
2022-10-20T19:33:59.483Z,15.6
2022-10-20T19:36:01.388Z,17.3
2022-10-20T19:38:06.419Z,19
2022-10-20T19:40:08.328Z,19.4
2022-10-20T19:42:10.254Z,19
2022-10-20T19:43:12.806Z,18
2022-10-20T19:45:14.729Z,17.4
2022-10-20T19:47:16.639Z,17.7
2022-10-20T19:51:23.544Z,20.2
2022-10-20T19:53:25.456Z,15.6
2022-10-20T19:59:31.159Z,16.7
2022-10-20T20:01:33.113Z,19.5
2022-10-20T20:03:34.982Z,17.5
2022-10-20T20:05:40.007Z,17.5
2022-10-20T20:07:41.932Z,15.7
2022-10-20T20:09:44.675Z,17.9
2022-10-20T20:11:45.710Z,17.8
2022-10-20T20:15:49.494Z,18.4
2022-10-20T20:17:51.379Z,18.6
2022-10-20T20:19:56.433Z,16.5
2022-10-20T20:24:01.004Z,16
2022-10-20T20:26:02.085Z,16.4
2022-10-20T20:28:03.999Z,16.4
2022-10-20T20:30:05.897Z,13.7
2022-10-20T20:32:07.835Z,14.6
2022-10-20T20:34:12.871Z,17.3
2022-10-20T20:36:14.748Z,17.1
2022-10-20T20:38:16.663Z,16.8
2022-10-20T20:40:45.169Z,19
2022-10-20T20:46:54.010Z,17.5
2022-10-20T20:48:55.897Z,16.5
2022-10-20T20:50:57.793Z,14.6
2022-10-20T20:52:59.732Z,17.2
2022-10-20T20:55:01.635Z,16.1
2022-10-20T20:57:03.540Z,17.1
2022-10-20T20:59:05.455Z,17.1
2022-10-20T21:01:10.562Z,18
2022-10-20T21:03:12.430Z,18.2
2022-10-20T21:05:14.297Z,17.4
2022-10-20T21:07:16.202Z,18.1
2022-10-20T21:09:18.150Z,17.2
2022-10-20T21:11:20.047Z,16.9
2022-10-20T21:13:21.960Z,18.7
2022-10-20T21:15:26.982Z,16.9
2022-10-20T21:17:28.876Z,18.1
2022-10-20T21:19:30.779Z,17.9
2022-10-20T21:21:32.661Z,17
2022-10-20T21:23:34.571Z,18.5
2022-10-20T21:25:36.603Z,17.8
2022-10-20T21:29:45.643Z,18
2022-10-20T21:31:45.294Z,19.6
2022-10-20T21:34:49.700Z,18.6
2022-10-20T21:40:55.390Z,21.2
2022-10-20T21:43:00.401Z,17.9
2022-10-20T21:45:02.312Z,18.6
2022-10-20T21:47:04.179Z,17.6
2022-10-20T21:49:06.095Z,18.2
2022-10-20T21:51:08.007Z,17.6
2022-10-20T21:53:09.889Z,18.8
2022-10-20T21:55:11.792Z,20.1
2022-10-20T21:57:16.811Z,17.8
2022-10-20T21:59:18.725Z,18.6
2022-10-20T22:01:20.746Z,18.8
2022-10-20T22:03:22.554Z,18.6
2022-10-20T22:05:24.426Z,18.1
2022-10-20T22:11:33.251Z,18.4
2022-10-20T22:15:37.056Z,16.3
2022-10-20T22:19:40.837Z,20.5
2022-10-20T22:21:42.765Z,19
2022-10-20T22:23:44.618Z,17.4
2022-10-20T22:25:49.645Z,19.6
2022-10-20T22:27:51.579Z,19.3
2022-10-20T22:30:56.033Z,20.8
2022-10-20T22:32:57.902Z,16.2
2022-10-20T22:34:59.792Z,17.7
2022-10-20T22:37:01.670Z,19.2
2022-10-20T22:39:06.923Z,18.4
2022-10-20T22:41:08.596Z,17.4
2022-10-20T22:43:10.486Z,18.8
2022-10-20T22:45:12.416Z,16.4
2022-10-20T22:47:14.311Z,17.3
2022-10-20T22:49:16.349Z,16.2
2022-10-20T22:51:18.069Z,17.8
2022-10-20T22:53:23.330Z,19.9
2022-10-20T22:55:24.979Z,17.7
2022-10-20T22:57:26.896Z,16.2
2022-10-20T22:59:28.959Z,18.4
2022-10-20T23:01:30.741Z,15.7
2022-10-20T23:03:32.590Z,16.7
2022-10-20T23:07:40.067Z,20.4
2022-10-20T23:09:41.536Z,16.4
2022-10-20T23:11:43.308Z,16.6
2022-10-20T23:13:45.228Z,18.3
2022-10-20T23:15:47.112Z,16.7
2022-10-20T23:17:49.008Z,17.5
2022-10-20T23:19:50.909Z,17.4
2022-10-20T23:23:57.832Z,17
2022-10-20T23:26:02.293Z,18.9
2022-10-20T23:27:02.264Z,16.7
2022-10-20T23:29:04.162Z,18.4
2022-10-20T23:31:06.065Z,17.5
2022-10-20T23:33:07.957Z,19.5
2022-10-20T23:35:13.018Z,18.7
2022-10-20T23:37:14.905Z,17.8
2022-10-20T23:39:16.799Z,17.6
2022-10-20T23:41:18.727Z,16.8
2022-10-20T23:43:20.614Z,16.8
2022-10-20T23:45:22.498Z,19.5
2022-10-20T23:47:24.401Z,19
2022-10-20T23:49:29.410Z,20.3
2022-10-20T23:51:31.345Z,18.9
2022-10-20T23:53:33.235Z,18.9
2022-10-20T23:55:35.145Z,18.9
2022-10-20T23:57:37.286Z,19.3
2022-10-20T23:59:38.925Z,18.6
